Time;durP1;ratioP1;P1;durP2;ratioP2;P2;SDS_P1;SDS_P2;PMS_P1;PMS_P2;Temp;Humidity;BMP_temperature;BMP_pressure;BME280_temperature;BME280_humidity;BME280_pressure;Samples;Min_cycle;Max_cycle;Signal;HPM_P1;HPM_P2
2021/10/11 00:02:43;;;;;;;79.75;38.05;;;;;;;2.29;80.67;99621.34;2213897;80;21096;-90
2021/10/11 00:05:44;;;;;;;86.00;39.55;;;;;;;2.32;80.55;99619.83;2214002;80;21479;-91
2021/10/11 00:08:45;;;;;;;82.00;38.38;;;;;;;2.32;80.43;99618.53;2215390;80;21103;-87
2021/10/11 00:11:46;;;;;;;84.52;39.53;;;;;;;2.31;80.46;99618.18;2215560;80;20965;-91
2021/10/11 00:14:47;;;;;;;89.85;40.35;;;;;;;2.30;80.48;99625.58;2209229;80;21096;-90
2021/10/11 00:17:47;;;;;;;90.55;41.10;;;;;;;2.26;80.42;99618.48;2202551;80;20982;-90
2021/10/11 00:20:48;;;;;;;94.97;41.95;;;;;;;2.23;80.49;99612.70;2202895;80;21023;-91
2021/10/11 00:23:49;;;;;;;74.03;34.63;;;;;;;2.19;80.69;99603.02;2203218;80;21009;-91
2021/10/11 00:26:50;;;;;;;65.80;32.15;;;;;;;2.16;80.73;99594.67;2203437;80;21025;-91
2021/10/11 00:29:51;;;;;;;66.05;34.18;;;;;;;2.15;80.70;99582.68;2203392;80;21052;-90
2021/10/11 00:32:51;;;;;;;72.37;34.00;;;;;;;2.14;80.40;99581.03;2203254;81;21456;-90
2021/10/11 00:35:52;;;;;;;72.20;35.98;;;;;;;2.11;80.34;99587.24;2203462;80;20993;-89
2021/10/11 00:38:53;;;;;;;124.78;45.10;;;;;;;2.07;80.58;99584.49;2203402;80;20997;-90
2021/10/11 00:41:54;;;;;;;95.32;40.78;;;;;;;2.08;80.83;99587.90;2203299;80;20942;-90
2021/10/11 00:44:55;;;;;;;83.30;37.85;;;;;;;2.06;80.75;99577.67;2203493;80;21496;-88
2021/10/11 00:47:55;;;;;;;84.05;36.03;;;;;;;2.06;80.84;99577.67;2203245;80;20997;-90
2021/10/11 00:50:57;;;;;;;81.10;35.83;;;;;;;2.07;80.95;99581.08;2203458;81;20997;-90
2021/10/11 00:53:58;;;;;;;82.33;36.85;;;;;;;2.08;80.94;99578.39;2203291;80;21532;-89
2021/10/11 00:56:59;;;;;;;81.05;37.40;;;;;;;2.08;81.03;99569.81;2203038;81;21016;-90
2021/10/11 00:59:59;;;;;;;71.55;34.88;;;;;;;2.05;80.72;99572.15;2202993;81;21017;-89
2021/10/11 01:03:00;;;;;;;61.77;33.48;;;;;;;1.90;80.71;99567.55;2203053;80;21069;-90
2021/10/11 01:06:01;;;;;;;58.08;31.35;;;;;;;1.84;80.96;99566.69;2203158;81;20973;-90
2021/10/11 01:09:02;;;;;;;60.40;30.05;;;;;;;1.77;81.07;99561.57;2203236;81;21089;-91
2021/10/11 01:12:03;;;;;;;79.30;35.17;;;;;;;1.78;81.10;99546.91;2203434;81;21071;-90
2021/10/11 01:15:03;;;;;;;68.85;32.10;;;;;;;1.76;81.02;99555.23;2207347;80;21057;-90
2021/10/11 01:18:04;;;;;;;75.95;34.80;;;;;;;1.70;81.21;99557.27;2213870;80;21563;-91
2021/10/11 01:21:05;;;;;;;68.25;33.30;;;;;;;1.69;81.23;99556.91;2214011;80;20988;-90
2021/10/11 01:24:06;;;;;;;72.25;35.25;;;;;;;1.65;81.40;99555.48;2214034;80;21088;-89
2021/10/11 01:27:07;;;;;;;77.47;36.23;;;;;;;1.60;81.55;99549.78;2213799;80;21064;-87
2021/10/11 01:30:09;;;;;;;73.40;35.58;;;;;;;1.59;81.71;99547.31;2214013;80;21459;-90
2021/10/11 01:33:10;;;;;;;76.55;35.83;;;;;;;1.60;81.62;99547.67;2213992;80;21011;-90
2021/10/11 01:36:11;;;;;;;84.77;44.05;;;;;;;1.44;81.24;99541.41;2213727;80;21005;-89
2021/10/11 01:39:11;;;;;;;82.17;39.60;;;;;;;1.26;81.46;99536.98;2213474;80;21056;-89
2021/10/11 01:42:12;;;;;;;63.25;32.63;;;;;;;1.21;81.89;99528.73;2213601;80;21666;-90
2021/10/11 01:45:13;;;;;;;62.53;32.98;;;;;;;1.20;82.12;99524.97;2213751;80;21056;-90
2021/10/11 01:48:14;;;;;;;76.92;39.40;;;;;;;1.16;82.07;99519.63;2213659;80;21540;-89
2021/10/11 01:51:14;;;;;;;77.45;44.55;;;;;;;1.17;82.07;99527.27;2213686;80;21000;-89
2021/10/11 01:54:15;;;;;;;82.10;45.80;;;;;;;1.14;82.00;99519.73;2213862;80;20961;-89
2021/10/11 01:57:16;;;;;;;77.47;39.08;;;;;;;1.15;82.05;99518.81;2213809;80;21091;-90
2021/10/11 02:00:17;;;;;;;69.70;35.25;;;;;;;1.17;82.12;99513.55;2213712;80;21052;-89
2021/10/11 02:03:18;;;;;;;69.87;37.17;;;;;;;1.14;81.99;99513.30;2213837;80;20996;-90
2021/10/11 02:06:19;;;;;;;74.20;38.48;;;;;;;1.10;82.12;99510.09;2213736;80;21060;-89
2021/10/11 02:09:20;;;;;;;73.92;39.80;;;;;;;1.09;82.74;99504.55;2213809;80;21020;-90
2021/10/11 02:12:20;;;;;;;66.53;36.88;;;;;;;1.07;82.67;99496.09;2213801;80;20998;-89
2021/10/11 02:15:21;;;;;;;135.15;53.78;;;;;;;1.08;82.57;99486.13;2213707;80;21024;-89
2021/10/11 02:18:22;;;;;;;102.78;43.02;;;;;;;1.11;82.43;99486.42;2213719;80;20984;-90
2021/10/11 02:21:23;;;;;;;90.72;44.95;;;;;;;1.11;82.48;99482.08;2213874;80;21093;-89
2021/10/11 02:24:24;;;;;;;87.67;40.60;;;;;;;1.13;82.46;99476.81;2215292;80;20992;-86
2021/10/11 02:27:24;;;;;;;72.45;36.05;;;;;;;1.11;82.35;99477.39;2215682;80;21043;-90
2021/10/11 02:30:25;;;;;;;72.75;35.05;;;;;;;1.06;82.37;99476.39;2213645;80;20965;-90
2021/10/11 02:33:27;;;;;;;66.10;33.50;;;;;;;1.03;82.50;99482.22;2213462;80;21026;-90
2021/10/11 02:36:28;;;;;;;63.35;32.75;;;;;;;1.03;82.55;99480.47;2213670;80;21532;-90
2021/10/11 02:39:28;;;;;;;73.40;36.85;;;;;;;1.00;82.58;99475.48;2214419;80;21024;-88
2021/10/11 02:42:29;;;;;;;65.87;32.28;;;;;;;1.02;82.70;99477.53;2213823;80;20969;-90
2021/10/11 02:45:30;;;;;;;62.50;32.85;;;;;;;0.98;82.60;99476.52;2213980;80;21063;-90
2021/10/11 02:48:31;;;;;;;61.35;33.65;;;;;;;0.95;82.62;99465.95;2213888;80;21000;-91
2021/10/11 02:51:32;;;;;;;64.25;32.78;;;;;;;0.97;82.81;99462.80;2213863;80;21504;-89
2021/10/11 02:54:33;;;;;;;60.85;32.78;;;;;;;0.95;82.73;99459.51;2213866;80;21185;-89
2021/10/11 02:57:33;;;;;;;81.80;36.98;;;;;;;0.94;82.77;99463.48;2213690;80;21437;-89
2021/10/11 03:00:34;;;;;;;77.55;36.75;;;;;;;0.90;82.82;99451.70;2214532;80;21359;-90
2021/10/11 03:03:35;;;;;;;79.55;35.83;;;;;;;0.88;83.07;99457.42;2213997;80;21008;-89
2021/10/11 03:06:36;;;;;;;74.85;34.30;;;;;;;0.86;82.94;99445.92;2213946;80;21091;-89
2021/10/11 03:09:37;;;;;;;76.40;34.95;;;;;;;0.88;83.00;99451.80;2213848;80;21076;-89
2021/10/11 03:12:38;;;;;;;57.05;31.37;;;;;;;0.88;83.03;99443.25;2213892;80;20941;-90
2021/10/11 03:15:39;;;;;;;66.28;32.93;;;;;;;0.85;83.15;99445.10;2209138;80;21092;-90
2021/10/11 03:18:40;;;;;;;58.45;34.27;;;;;;;0.87;83.24;99457.06;2203274;81;21016;-90
2021/10/11 03:21:41;;;;;;;65.17;34.13;;;;;;;0.82;83.06;99450.91;2203266;81;20977;-90
2021/10/11 03:24:42;;;;;;;65.03;33.38;;;;;;;0.80;83.15;99452.77;2203545;80;21025;-91
2021/10/11 03:27:43;;;;;;;64.37;32.20;;;;;;;0.78;83.24;99456.73;2203536;81;21005;-90
2021/10/11 03:30:43;;;;;;;61.28;34.70;;;;;;;0.76;83.26;99445.70;2183741;81;20972;-89
2021/10/11 03:33:44;;;;;;;66.42;34.63;;;;;;;0.76;83.30;99443.59;2204104;80;21011;-90
2021/10/11 03:36:45;;;;;;;62.43;33.63;;;;;;;0.77;83.31;99440.08;2203393;81;21030;-88
2021/10/11 03:39:46;;;;;;;70.03;35.38;;;;;;;0.71;83.22;99434.84;2203503;80;20964;-91
2021/10/11 03:42:47;;;;;;;72.87;34.70;;;;;;;0.70;83.37;99440.11;2203436;81;21096;-88
2021/10/11 03:45:48;;;;;;;66.47;35.55;;;;;;;0.68;83.40;99433.77;2203298;81;20950;-89
2021/10/11 03:48:48;;;;;;;65.90;32.75;;;;;;;0.69;83.65;99426.86;2203263;80;20980;-89
2021/10/11 03:51:49;;;;;;;67.37;34.08;;;;;;;0.72;83.71;99424.90;2203182;81;21440;-90
2021/10/11 03:54:50;;;;;;;76.97;37.85;;;;;;;0.72;83.80;99423.61;2203325;80;20922;-90
2021/10/11 03:57:51;;;;;;;76.47;39.30;;;;;;;0.76;83.86;99426.83;2203435;81;20965;-89
2021/10/11 04:00:51;;;;;;;81.37;40.15;;;;;;;0.74;83.81;99423.53;2203516;80;20949;-90
2021/10/11 04:03:53;;;;;;;82.17;38.40;;;;;;;0.68;83.76;99423.92;2203961;81;21384;-90
2021/10/11 04:06:56;;;;;;;79.67;39.83;;;;;;;0.65;83.89;99428.00;2203306;80;20946;-90
2021/10/11 04:10:00;;;;;;;76.15;37.78;;;;;;;0.66;83.77;99414.18;2203159;80;21071;-90
2021/10/11 04:13:05;;;;;;;66.65;36.63;;;;;;;0.62;83.77;99406.27;2203516;80;21580;-90
2021/10/11 04:16:05;;;;;;;66.47;35.60;;;;;;;0.68;83.70;99408.45;2203056;80;21075;-88
2021/10/11 04:19:06;;;;;;;60.33;32.85;;;;;;;0.68;83.73;99413.15;2203439;80;21064;-90
2021/10/11 04:22:07;;;;;;;62.60;33.83;;;;;;;0.68;83.50;99414.91;2203362;81;21088;-88
2021/10/11 04:25:07;;;;;;;63.15;32.55;;;;;;;0.65;83.62;99405.63;2203289;80;20997;-88
2021/10/11 04:28:10;;;;;;;65.15;34.18;;;;;;;0.61;83.57;99399.00;2203394;80;20985;-90
2021/10/11 04:31:11;;;;;;;62.20;32.53;;;;;;;0.58;83.54;99393.23;2203517;81;21089;-89
2021/10/11 04:34:11;;;;;;;61.37;32.88;;;;;;;0.57;83.66;99392.41;2203461;80;20950;-89
2021/10/11 04:37:12;;;;;;;56.63;31.35;;;;;;;0.54;83.65;99383.56;2203220;81;21081;-92
2021/10/11 04:40:13;;;;;;;56.30;31.45;;;;;;;0.53;83.52;99387.08;2204703;81;21491;-89
2021/10/11 04:43:14;;;;;;;62.25;32.67;;;;;;;0.51;83.64;99379.91;2205156;81;21513;-90
2021/10/11 04:46:15;;;;;;;63.73;30.08;;;;;;;0.48;83.74;99376.25;2203246;81;21056;-84
2021/10/11 04:49:16;;;;;;;58.40;31.35;;;;;;;0.48;84.10;99374.97;2203070;81;21004;-82
2021/10/11 04:52:17;;;;;;;67.45;37.00;;;;;;;0.52;84.14;99381.09;2203146;81;21036;-82
2021/10/11 04:55:18;;;;;;;73.87;34.83;;;;;;;0.54;84.37;99375.84;2203286;81;20958;-84
2021/10/11 04:58:19;;;;;;;78.60;36.23;;;;;;;0.59;84.42;99371.69;2203331;81;21044;-83
2021/10/11 05:01:21;;;;;;;70.05;36.17;;;;;;;0.58;84.12;99379.06;2203214;81;21000;-83
2021/10/11 05:04:22;;;;;;;69.53;35.65;;;;;;;0.55;84.58;99383.49;2203118;81;20929;-83
2021/10/11 05:07:22;;;;;;;70.25;35.28;;;;;;;0.49;84.53;99389.50;2203410;81;20993;-82
2021/10/11 05:10:23;;;;;;;60.78;32.58;;;;;;;0.47;84.39;99390.89;2202809;81;21033;-85
2021/10/11 05:13:24;;;;;;;75.80;37.03;;;;;;;0.48;84.33;99388.67;2202725;81;21143;-89
2021/10/11 05:16:27;;;;;;;71.47;37.53;;;;;;;0.45;84.21;99399.63;2203122;80;21576;-85
2021/10/11 05:19:28;;;;;;;66.92;35.28;;;;;;;0.46;84.42;99393.11;2203494;81;21016;-90
2021/10/11 05:22:29;;;;;;;67.53;34.90;;;;;;;0.53;84.57;99396.09;2203410;81;21060;-89
2021/10/11 05:25:30;;;;;;;52.98;29.48;;;;;;;0.61;84.51;99399.47;2203332;81;21508;-90
2021/10/11 05:28:30;;;;;;;56.95;30.68;;;;;;;0.62;84.31;99385.19;2203625;81;21609;-89
2021/10/11 05:31:31;;;;;;;58.15;32.42;;;;;;;0.58;84.32;99386.79;2202919;81;20993;-87
2021/10/11 05:34:32;;;;;;;56.00;29.65;;;;;;;0.62;84.79;99379.20;2203311;81;20965;-87
2021/10/11 05:37:33;;;;;;;52.08;28.47;;;;;;;0.69;84.79;99382.58;2203258;81;21088;-84
2021/10/11 05:40:34;;;;;;;63.65;30.30;;;;;;;0.83;84.91;99376.52;2203408;80;21437;-87
2021/10/11 05:43:34;;;;;;;55.55;29.95;;;;;;;0.94;84.78;99367.61;2203917;80;21092;-86
2021/10/11 05:46:35;;;;;;;54.98;31.05;;;;;;;1.13;84.76;99374.46;2203668;81;20946;-90
2021/10/11 05:49:36;;;;;;;60.05;33.00;;;;;;;1.26;84.52;99378.31;2203224;81;21064;-88
2021/10/11 05:52:37;;;;;;;54.63;30.90;;;;;;;1.41;84.49;99372.58;2203867;81;21075;-83
2021/10/11 05:55:38;;;;;;;59.58;30.62;;;;;;;1.54;84.48;99368.67;2203280;81;21030;-89
2021/10/11 05:58:39;;;;;;;51.88;30.37;;;;;;;1.71;84.40;99378.66;2203427;81;20998;-88
2021/10/11 06:01:40;;;;;;;57.03;30.70;;;;;;;1.85;83.92;99376.41;2203207;81;20957;-87
2021/10/11 06:04:41;;;;;;;70.72;36.23;;;;;;;1.94;83.63;99376.58;2203819;81;21556;-88
2021/10/11 06:07:42;;;;;;;77.00;39.55;;;;;;;2.07;83.63;99387.33;2204457;81;20980;-88
2021/10/11 06:10:43;;;;;;;91.45;44.03;;;;;;;2.18;83.45;99386.91;2204059;80;21085;-85
2021/10/11 06:13:44;;;;;;;97.85;39.78;;;;;;;2.27;83.50;99382.84;2204538;81;20961;-87
2021/10/11 06:16:45;;;;;;;63.38;31.42;;;;;;;2.37;83.24;99384.29;2209977;80;21083;-87
2021/10/11 06:19:45;;;;;;;46.02;26.20;;;;;;;2.36;83.65;99378.77;2214770;80;21060;-89
2021/10/11 06:22:46;;;;;;;46.85;27.25;;;;;;;2.41;83.90;99371.52;2214704;80;21032;-87
2021/10/11 06:25:47;;;;;;;58.35;33.63;;;;;;;2.42;83.65;99367.52;2214722;80;21027;-88
2021/10/11 06:28:48;;;;;;;72.53;37.73;;;;;;;2.61;83.91;99367.47;2214205;80;21033;-91
2021/10/11 06:31:49;;;;;;;64.53;33.98;;;;;;;2.82;83.91;99374.92;2214043;80;21007;-87
2021/10/11 06:34:49;;;;;;;64.60;34.20;;;;;;;3.07;83.87;99355.80;2213453;80;20985;-87
2021/10/11 06:37:50;;;;;;;81.63;43.45;;;;;;;3.30;83.78;99351.00;2213843;80;21351;-91
2021/10/11 06:40:52;;;;;;;75.83;39.40;;;;;;;3.44;83.50;99347.33;2214132;80;21072;-90
2021/10/11 06:43:53;;;;;;;69.20;37.58;;;;;;;3.64;83.46;99354.84;2214105;80;20999;-91
2021/10/11 06:46:54;;;;;;;55.90;30.05;;;;;;;3.77;83.10;99359.90;2214060;80;21464;-83
2021/10/11 06:49:55;;;;;;;52.98;29.07;;;;;;;3.91;82.79;99352.67;2214034;80;21028;-87
2021/10/11 06:52:55;;;;;;;58.25;31.82;;;;;;;4.02;82.57;99343.22;2216098;80;21303;-88
2021/10/11 06:55:56;;;;;;;49.63;28.07;;;;;;;4.13;82.83;99352.27;2215906;80;21035;-84
2021/10/11 06:58:57;;;;;;;56.37;32.30;;;;;;;4.26;82.56;99352.45;2216364;80;21000;-89
2021/10/11 07:01:58;;;;;;;45.70;25.48;;;;;;;4.43;82.39;99353.67;2187435;80;21024;-89
2021/10/11 07:05:08;;;;;;;40.85;23.57;;;;;;;4.62;81.77;99354.29;2213975;80;21052;-88
2021/10/11 07:08:08;;;;;;;46.33;23.38;;;;;;;4.82;81.40;99345.67;2212221;80;20992;-90
2021/10/11 07:11:08;;;;;;;44.45;24.12;;;;;;;4.96;81.07;99343.24;2212738;80;21072;-89
2021/10/11 07:14:07;;;;;;;73.07;40.23;;;;;;;5.10;80.93;99338.99;2213620;80;21554;-87
2021/10/11 07:17:07;;;;;;;58.35;28.52;;;;;;;5.22;80.23;99341.05;2207937;80;21001;-86
2021/10/11 07:20:08;;;;;;;51.42;24.27;;;;;;;5.36;80.16;99340.68;2203842;81;20961;-86
2021/10/11 07:23:09;;;;;;;39.38;22.93;;;;;;;5.52;80.01;99341.98;2203888;81;20974;-83
2021/10/11 07:26:10;;;;;;;33.88;20.32;;;;;;;5.64;79.40;99343.03;2205074;81;21469;-84
2021/10/11 07:29:11;;;;;;;32.45;19.87;;;;;;;5.71;77.57;99346.75;2205495;81;21044;-85
2021/10/11 07:32:12;;;;;;;26.15;16.12;;;;;;;5.76;77.17;99344.20;2204211;80;21053;-88
2021/10/11 07:35:13;;;;;;;26.42;17.67;;;;;;;5.83;76.84;99349.22;2203313;81;21111;-89
2021/10/11 07:38:14;;;;;;;35.40;21.20;;;;;;;5.93;76.32;99346.19;2203579;81;20969;-92
2021/10/11 07:41:15;;;;;;;40.73;24.20;;;;;;;6.05;76.33;99341.72;2203537;81;20993;-86
2021/10/11 07:44:16;;;;;;;38.10;21.82;;;;;;;6.16;76.04;99344.18;2203245;81;21008;-87
2021/10/11 07:47:18;;;;;;;33.35;19.35;;;;;;;6.28;75.85;99347.80;2203278;81;21029;-84
2021/10/11 07:50:18;;;;;;;33.15;21.02;;;;;;;6.38;75.61;99335.27;2202996;81;21718;-87
2021/10/11 07:53:20;;;;;;;31.05;18.52;;;;;;;6.50;75.28;99336.80;2203181;81;21052;-88
2021/10/11 07:56:21;;;;;;;34.63;19.60;;;;;;;6.61;74.38;99337.13;2203366;81;20973;-87
2021/10/11 07:59:22;;;;;;;32.63;19.48;;;;;;;6.72;74.64;99336.96;2203328;81;20973;-88
2021/10/11 08:02:23;;;;;;;30.00;17.87;;;;;;;6.81;74.61;99327.02;2203316;80;21004;-88
2021/10/11 08:05:25;;;;;;;31.12;19.85;;;;;;;6.91;74.47;99325.20;2203360;81;20997;-89
2021/10/11 08:08:26;;;;;;;29.63;18.48;;;;;;;7.02;74.16;99332.02;2203336;81;21512;-87
2021/10/11 08:11:27;;;;;;;26.95;17.00;;;;;;;7.09;73.64;99322.69;2203387;81;21009;-85
2021/10/11 08:14:28;;;;;;;27.45;16.85;;;;;;;7.18;73.40;99325.73;2203259;80;20961;-88
2021/10/11 08:17:29;;;;;;;26.15;15.70;;;;;;;7.28;71.45;99325.21;2203272;80;21532;-89
2021/10/11 08:20:31;;;;;;;21.37;13.60;;;;;;;7.34;71.90;99325.13;2203116;81;21023;-89
2021/10/11 08:23:35;;;;;;;25.72;14.35;;;;;;;7.41;71.51;99309.27;2203237;80;20992;-88
2021/10/11 08:26:35;;;;;;;31.10;15.18;;;;;;;7.51;70.51;99306.61;2203059;80;21000;-88
2021/10/11 08:29:36;;;;;;;21.15;14.30;;;;;;;7.62;70.35;99305.10;2203184;81;21301;-89
2021/10/11 08:32:37;;;;;;;21.55;14.45;;;;;;;7.71;69.58;99297.70;2203207;81;21001;-88
2021/10/11 08:35:38;;;;;;;25.90;16.00;;;;;;;7.80;69.64;99299.43;2203329;81;21516;-89
2021/10/11 08:38:39;;;;;;;31.62;18.62;;;;;;;7.90;68.76;99298.88;2203361;81;21097;-89
2021/10/11 08:41:42;;;;;;;26.57;16.30;;;;;;;7.98;69.05;99290.32;2203386;81;20981;-88
2021/10/11 08:44:43;;;;;;;28.90;17.32;;;;;;;8.10;69.05;99284.38;2203178;81;21048;-89
2021/10/11 08:47:45;;;;;;;25.60;16.40;;;;;;;8.16;67.32;99281.19;2203336;81;21567;-89
2021/10/11 08:50:46;;;;;;;23.35;14.33;;;;;;;8.21;67.32;99284.15;2203242;81;21328;-89
2021/10/11 08:53:47;;;;;;;25.77;15.80;;;;;;;8.31;66.92;99282.75;2203317;81;21075;-88
2021/10/11 08:56:48;;;;;;;23.32;15.13;;;;;;;8.36;65.81;99280.56;2203395;81;20978;-89
2021/10/11 08:59:49;;;;;;;26.55;14.63;;;;;;;8.43;64.91;99283.72;2203407;81;20996;-89
2021/10/11 09:02:51;;;;;;;24.87;15.78;;;;;;;8.52;65.61;99280.69;2203171;81;20961;-88
2021/10/11 09:05:53;;;;;;;25.70;14.75;;;;;;;8.61;64.75;99275.03;2203182;81;20993;-88
2021/10/11 09:08:54;;;;;;;21.15;13.90;;;;;;;8.70;64.90;99284.08;2203237;81;21032;-89
2021/10/11 09:11:55;;;;;;;26.73;13.28;;;;;;;8.81;64.92;99279.89;2203619;81;21000;-87
2021/10/11 09:14:57;;;;;;;26.12;14.15;;;;;;;8.94;63.16;99276.03;2206361;81;21084;-87
2021/10/11 09:18:04;;;;;;;27.48;13.40;;;;;;;9.06;63.72;99270.40;2209868;80;21028;-89
2021/10/11 09:21:03;;;;;;;22.05;10.63;;;;;;;9.20;63.28;99269.47;2213738;80;21531;-88
2021/10/11 09:24:04;;;;;;;20.40;11.80;;;;;;;9.28;59.79;99265.09;2213810;80;20981;-88
2021/10/11 09:27:05;;;;;;;21.65;13.20;;;;;;;9.35;58.62;99262.19;2213861;80;21543;-88
2021/10/11 09:30:06;;;;;;;23.05;12.07;;;;;;;9.47;60.42;99262.70;2213902;80;21059;-89
2021/10/11 09:33:07;;;;;;;21.90;12.53;;;;;;;9.56;60.06;99260.44;2213851;80;20980;-89
2021/10/11 09:36:08;;;;;;;20.75;11.68;;;;;;;9.62;59.26;99257.20;2213825;80;21056;-89
2021/10/11 09:39:09;;;;;;;21.77;14.28;;;;;;;9.67;57.01;99256.21;2213973;80;20949;-90
2021/10/11 09:42:10;;;;;;;20.43;13.95;;;;;;;9.70;58.48;99252.48;2213735;80;21587;-89
2021/10/11 09:45:11;;;;;;;23.00;14.78;;;;;;;9.74;58.21;99248.55;2213674;80;21552;-86
2021/10/11 09:48:12;;;;;;;25.57;18.40;;;;;;;9.81;57.84;99243.02;2214363;80;20980;-91
2021/10/11 09:51:13;;;;;;;19.57;14.18;;;;;;;9.89;58.16;99239.59;2213800;80;20991;-91
2021/10/11 09:54:15;;;;;;;24.45;14.53;;;;;;;9.95;56.67;99235.00;2187196;80;22057;-88
2021/10/11 09:57:16;;;;;;;25.45;15.28;;;;;;;10.03;55.60;99231.58;2213959;80;21040;-90
2021/10/11 10:00:16;;;;;;;21.70;12.35;;;;;;;10.11;56.25;99233.70;2213896;80;21007;-89
2021/10/11 10:03:17;;;;;;;20.55;12.50;;;;;;;10.19;56.05;99227.16;2214136;80;21000;-95
2021/10/11 10:06:18;;;;;;;20.00;11.73;;;;;;;10.25;56.07;99218.70;2213969;80;20996;-92
2021/10/11 10:09:19;;;;;;;13.22;10.23;;;;;;;10.30;54.13;99226.53;2214065;80;21036;-91
2021/10/11 10:12:20;;;;;;;15.40;9.53;;;;;;;10.31;54.69;99217.20;2214183;80;21531;-86
2021/10/11 10:15:20;;;;;;;19.35;10.18;;;;;;;10.35;53.98;99210.66;2214761;80;21063;-91
2021/10/11 10:18:22;;;;;;;15.30;9.58;;;;;;;10.39;54.65;99204.59;2206711;80;21143;-91
2021/10/11 10:21:23;;;;;;;12.50;9.03;;;;;;;10.44;54.20;99197.08;2203360;81;21032;-91
2021/10/11 10:24:24;;;;;;;20.92;10.90;;;;;;;10.52;54.23;99202.30;2203256;81;20961;-92
2021/10/11 10:27:26;;;;;;;17.15;9.90;;;;;;;10.57;53.61;99194.73;2203316;81;21051;-91
2021/10/11 10:30:27;;;;;;;15.65;9.50;;;;;;;10.61;52.86;99190.00;2202945;81;21097;-91
2021/10/11 10:33:28;;;;;;;14.20;8.85;;;;;;;10.66;52.74;99186.37;2202844;80;20949;-91
2021/10/11 10:36:30;;;;;;;13.28;8.65;;;;;;;10.70;53.03;99190.30;2202954;81;21052;-91
2021/10/11 10:39:31;;;;;;;12.30;8.05;;;;;;;10.74;52.51;99183.23;2203122;81;20957;-91
2021/10/11 10:42:32;;;;;;;10.68;8.25;;;;;;;10.77;51.59;99186.81;2203004;81;20969;-93
2021/10/11 10:45:34;;;;;;;14.95;8.28;;;;;;;10.83;51.33;99184.02;2203205;81;20992;-91
2021/10/11 10:48:36;;;;;;;14.30;8.98;;;;;;;10.93;51.72;99193.80;2203192;81;21104;-91
2021/10/11 10:51:37;;;;;;;15.98;8.95;;;;;;;11.03;50.45;99185.23;2203172;80;21546;-91
2021/10/11 10:54:38;;;;;;;15.80;8.78;;;;;;;11.09;50.43;99191.61;2203278;80;21008;-92
2021/10/11 10:57:39;;;;;;;10.23;8.28;;;;;;;11.17;50.67;99185.52;2203216;80;21016;-91
2021/10/11 11:00:41;;;;;;;12.55;7.55;;;;;;;11.26;49.21;99182.69;2203282;81;20969;-92
2021/10/11 11:03:42;;;;;;;11.55;8.00;;;;;;;11.35;49.29;99179.52;2203059;81;21044;-92
2021/10/11 11:06:43;;;;;;;12.55;7.83;;;;;;;11.46;47.91;99178.30;2203055;81;21065;-91
2021/10/11 11:09:44;;;;;;;9.85;7.37;;;;;;;11.56;47.57;99175.77;2203132;81;21551;-91
2021/10/11 11:12:45;;;;;;;10.28;7.85;;;;;;;11.62;47.67;99168.53;2203272;81;20988;-92
2021/10/11 11:15:46;;;;;;;10.23;7.55;;;;;;;11.71;47.24;99171.09;2203247;80;21012;-91
2021/10/11 11:18:47;;;;;;;16.23;9.10;;;;;;;11.76;47.21;99158.25;2203043;80;21024;-91
2021/10/11 11:21:50;;;;;;;14.87;8.13;;;;;;;11.86;47.23;99157.54;2203025;81;21052;-92
2021/10/11 11:24:51;;;;;;;10.78;7.60;;;;;;;11.92;47.41;99151.59;2203659;81;21528;-92
2021/10/11 11:27:52;;;;;;;11.53;8.43;;;;;;;11.96;46.66;99145.80;2203566;80;20977;-90
2021/10/11 11:30:54;;;;;;;14.20;8.15;;;;;;;11.99;46.37;99141.21;2207674;78;20993;-89
2021/10/11 11:33:55;;;;;;;11.08;8.25;;;;;;;12.04;45.04;99138.35;2204735;78;20996;-91
2021/10/11 11:36:56;;;;;;;11.50;7.22;;;;;;;12.09;45.86;99134.71;2203409;80;21592;-91
2021/10/11 11:39:57;;;;;;;11.45;8.30;;;;;;;12.13;44.96;99138.59;2203752;81;20977;-91
2021/10/11 11:42:58;;;;;;;10.53;7.62;;;;;;;12.16;44.44;99132.16;2203392;81;20973;-92
2021/10/11 11:45:59;;;;;;;12.50;7.67;;;;;;;12.20;45.07;99137.39;2203382;80;21048;-91
2021/10/11 11:49:00;;;;;;;16.55;8.48;;;;;;;12.23;42.71;99133.89;2203492;81;21024;-91
2021/10/11 11:52:02;;;;;;;17.00;8.70;;;;;;;12.26;43.95;99134.05;2203328;80;21059;-93
2021/10/11 11:55:03;;;;;;;13.98;9.80;;;;;;;12.28;43.42;99138.63;2203546;81;20969;-90
2021/10/11 11:58:06;;;;;;;17.55;8.95;;;;;;;12.32;44.44;99129.88;2203534;80;20972;-92
2021/10/11 12:01:07;;;;;;;16.67;9.80;;;;;;;12.32;43.94;99126.75;2203600;80;21555;-90
2021/10/11 12:04:08;;;;;;;12.63;9.78;;;;;;;12.37;44.19;99128.85;2203886;81;20964;-89
2021/10/11 12:07:09;;;;;;;19.15;9.80;;;;;;;12.40;44.43;99125.86;2204005;81;20992;-91
2021/10/11 12:10:11;;;;;;;16.75;9.78;;;;;;;12.45;44.49;99124.33;2203808;81;21059;-90
2021/10/11 12:13:12;;;;;;;11.60;8.08;;;;;;;12.50;43.91;99121.14;2204951;80;21033;-90
2021/10/11 12:16:13;;;;;;;15.13;9.08;;;;;;;12.50;43.57;99114.08;2206019;80;21039;-90
2021/10/11 12:19:14;;;;;;;13.60;9.20;;;;;;;12.54;43.67;99113.23;2214229;80;21020;-90
2021/10/11 12:22:16;;;;;;;15.75;10.20;;;;;;;12.56;43.45;99103.85;2216216;80;20957;-90
2021/10/11 12:25:17;;;;;;;13.58;8.93;;;;;;;12.57;42.83;99106.29;2216503;80;21031;-90
2021/10/11 12:28:18;;;;;;;11.22;8.55;;;;;;;12.59;42.49;99102.16;2216422;80;20995;-90
2021/10/11 12:31:19;;;;;;;12.75;8.38;;;;;;;12.59;43.17;99098.22;2216485;80;20969;-91
2021/10/11 12:34:20;;;;;;;14.53;9.25;;;;;;;12.62;42.42;99104.41;2216421;80;20984;-91
2021/10/11 12:37:21;;;;;;;13.60;9.05;;;;;;;12.62;42.54;99097.38;2216388;80;21020;-90
2021/10/11 12:40:22;;;;;;;11.18;8.43;;;;;;;12.64;42.69;99087.48;2216649;80;21009;-90
2021/10/11 12:43:23;;;;;;;18.20;9.33;;;;;;;12.64;42.18;99090.12;2216628;80;21004;-90
2021/10/11 12:46:27;;;;;;;14.23;8.98;;;;;;;12.67;42.69;99085.80;2216719;80;20930;-93
2021/10/11 12:49:27;;;;;;;19.52;10.30;;;;;;;12.75;42.67;99077.00;2215384;80;21104;-89
2021/10/11 12:52:28;;;;;;;17.77;10.13;;;;;;;12.75;42.67;99077.00;2214429;80;20961;-91
2021/10/11 12:55:28;;;;;;;17.23;9.35;;;;;;;12.81;42.38;99073.65;2214398;80;21085;-91
2021/10/11 12:58:29;;;;;;;16.17;9.38;;;;;;;12.88;42.51;99060.56;2213814;80;20969;-90
2021/10/11 13:01:30;;;;;;;11.63;8.23;;;;;;;12.96;42.71;99052.56;2213856;80;22156;-90
2021/10/11 13:04:31;;;;;;;14.98;7.97;;;;;;;13.03;41.55;99060.84;2213830;80;21068;-86
2021/10/11 13:07:32;;;;;;;15.63;10.20;;;;;;;13.05;41.96;99055.39;2213856;80;21035;-89
2021/10/11 13:10:33;;;;;;;15.03;9.33;;;;;;;13.09;41.79;99048.77;2213907;80;21127;-89
2021/10/11 13:13:34;;;;;;;15.13;8.55;;;;;;;13.15;41.84;99044.06;2213799;80;20969;-88
2021/10/11 13:16:35;;;;;;;15.05;9.45;;;;;;;13.19;41.97;99047.98;2214057;80;21000;-88
2021/10/11 13:19:38;;;;;;;12.65;8.60;;;;;;;13.23;41.15;99044.47;2205705;80;21029;-87
2021/10/11 13:22:38;;;;;;;12.78;8.28;;;;;;;13.27;40.76;99037.84;2203376;81;21080;-87
2021/10/11 13:25:39;;;;;;;15.18;8.95;;;;;;;13.29;40.84;99045.86;2203627;81;21009;-87
2021/10/11 13:28:49;;;;;;;16.32;8.98;;;;;;;13.31;40.49;99037.27;2203262;81;21053;-88
2021/10/11 13:32:15;;;;;;;15.55;9.35;;;;;;;13.33;40.49;99037.89;2201931;80;21508;-88
2021/10/11 13:35:22;;;;;;;15.90;9.95;;;;;;;13.31;40.65;99025.44;2200209;81;21080;-88
2021/10/11 14:27:46;;;;;;;18.17;11.75;;;;;;;12.87;44.01;99026.90;2138926;83;21083;-85
2021/10/11 14:30:48;;;;;;;27.62;14.50;;;;;;;12.79;44.81;99040.16;2094796;85;21112;-86
2021/10/11 14:34:01;;;;;;;25.02;14.45;;;;;;;12.79;44.81;99040.16;2064926;86;21073;-82
2021/10/11 15:54:35;;;;;;;31.77;15.80;;;;;;;10.40;52.92;99005.48;2187749;81;21506;-86
2021/10/11 15:59:38;;;;;;;31.30;17.27;;;;;;;10.03;53.78;98996.12;2187985;81;21068;-83
2021/10/11 16:02:40;;;;;;;35.75;16.50;;;;;;;9.91;54.17;98999.11;2187775;81;20973;-86
2021/10/11 16:05:40;;;;;;;30.10;15.85;;;;;;;9.80;54.37;98999.47;2188159;81;21067;-83
2021/10/11 16:08:40;;;;;;;33.85;17.42;;;;;;;9.70;54.66;98998.84;2188914;81;21286;-88
2021/10/11 16:11:41;;;;;;;39.70;18.50;;;;;;;9.60;55.40;99004.26;2188041;81;21057;-85